createdAt,value
2018-05-12T00:00:52.698Z,12.93
2018-05-12T00:02:02.674Z,12.95
2018-05-12T00:03:12.648Z,12.98
2018-05-12T00:04:22.367Z,13.02
2018-05-12T00:05:32.350Z,12.98
2018-05-12T00:06:42.064Z,12.94
2018-05-12T00:07:52.072Z,12.93
2018-05-12T00:09:02.058Z,13.09
2018-05-12T00:10:12.032Z,12.86
2018-05-12T00:11:21.739Z,12.88
2018-05-12T00:12:31.712Z,12.9
2018-05-12T00:13:41.192Z,12.87
2018-05-12T00:14:51.241Z,12.94
2018-05-12T00:16:01.310Z,12.9
2018-05-12T00:17:11.279Z,12.88
2018-05-12T00:18:21.005Z,12.94
2018-05-12T00:19:30.988Z,12.98
2018-05-12T00:20:40.708Z,12.84
2018-05-12T00:21:50.705Z,12.99
2018-05-12T00:23:00.677Z,12.95
2018-05-12T00:24:10.646Z,12.93
2018-05-12T00:25:20.364Z,12.87
2018-05-12T00:26:30.342Z,12.86
2018-05-12T00:27:40.318Z,12.95
2018-05-12T00:28:50.307Z,12.91
2018-05-12T00:30:00.027Z,12.99
2018-05-12T00:31:09.737Z,12.94
2018-05-12T00:32:19.712Z,13.01
2018-05-12T00:33:29.690Z,12.9
2018-05-12T00:34:39.665Z,12.93
2018-05-12T00:35:49.383Z,12.87
2018-05-12T00:36:59.172Z,12.93
2018-05-12T00:38:09.153Z,12.91
2018-05-12T00:39:19.115Z,12.94
2018-05-12T00:40:29.086Z,12.95
2018-05-12T00:41:39.052Z,12.87
2018-05-12T00:42:49.061Z,12.9
2018-05-12T00:43:59.137Z,12.88
2018-05-12T00:45:09.130Z,12.87
2018-05-12T00:46:19.113Z,12.83
2018-05-12T00:47:28.826Z,12.75
2018-05-12T00:48:38.806Z,12.81
2018-05-12T00:49:48.768Z,12.78
2018-05-12T00:50:58.732Z,12.78
2018-05-12T00:52:08.438Z,12.78
2018-05-12T00:53:18.422Z,12.72
2018-05-12T00:54:28.149Z,12.73
2018-05-12T00:55:38.119Z,12.76
2018-05-12T00:56:47.828Z,12.81
2018-05-12T00:57:57.550Z,12.66
2018-05-12T00:59:07.519Z,12.78
2018-05-12T01:00:17.229Z,12.69
2018-05-12T01:01:27.214Z,12.76
2018-05-12T01:02:37.188Z,12.68
2018-05-12T01:03:47.159Z,12.69
2018-05-12T01:04:57.136Z,12.69
2018-05-12T01:06:07.104Z,12.65
2018-05-12T01:07:16.805Z,12.63
2018-05-12T01:08:26.790Z,12.68
2018-05-12T01:09:36.498Z,12.57
2018-05-12T01:10:46.458Z,12.53
2018-05-12T01:11:56.425Z,12.51
2018-05-12T01:13:06.155Z,12.53
2018-05-12T01:14:16.130Z,12.5
2018-05-12T01:15:26.110Z,12.57
2018-05-12T01:16:36.081Z,12.5
2018-05-12T01:17:46.049Z,12.54
2018-05-12T01:18:56.017Z,12.54
2018-05-12T01:20:05.997Z,12.54
2018-05-12T01:21:15.698Z,12.45
2018-05-12T01:22:24.892Z,12.53
2018-05-12T01:23:34.859Z,12.5
2018-05-12T01:24:44.817Z,12.5
2018-05-12T01:25:54.797Z,12.53
2018-05-12T01:27:04.507Z,12.45
2018-05-12T01:28:14.489Z,12.47
2018-05-12T01:29:24.232Z,12.47
2018-05-12T01:30:33.951Z,12.5
2018-05-12T01:31:43.912Z,12.43
2018-05-12T01:32:53.622Z,12.36
2018-05-12T01:34:03.621Z,12.39
2018-05-12T01:35:13.339Z,12.35
2018-05-12T01:36:23.315Z,12.37
2018-05-12T01:37:32.764Z,12.35
2018-05-12T01:38:42.745Z,12.43
2018-05-12T01:39:52.453Z,12.32
2018-05-12T01:41:02.157Z,12.28
2018-05-12T01:42:12.153Z,12.23
2018-05-12T01:43:22.130Z,12.29
2018-05-12T01:44:31.844Z,12.26
2018-05-12T01:45:41.801Z,12.25
2018-05-12T01:46:51.243Z,12.2
2018-05-12T01:48:01.218Z,12.15
2018-05-12T01:49:11.203Z,12.17
2018-05-12T01:50:21.383Z,12.11
2018-05-12T01:51:31.347Z,12.03
2018-05-12T01:52:41.322Z,12.11
2018-05-12T01:53:51.325Z,12.08
2018-05-12T01:55:01.896Z,12.05
2018-05-12T01:56:11.869Z,12.21
2018-05-12T01:57:21.835Z,12.1
2018-05-12T01:58:31.824Z,12.2
2018-05-12T01:59:41.536Z,12.18
2018-05-12T02:00:51.522Z,12.18
2018-05-12T02:02:01.721Z,12.18
2018-05-12T02:03:12.589Z,12.18
2018-05-12T02:04:23.256Z,12.2
2018-05-12T02:05:33.246Z,12.17
2018-05-12T02:06:42.978Z,12.15
2018-05-12T02:07:52.947Z,12.15
2018-05-12T02:09:02.913Z,12.18
2018-05-12T02:10:12.622Z,12.2
2018-05-12T02:11:22.336Z,12.2
2018-05-12T02:12:32.300Z,12.15
2018-05-12T02:13:42.282Z,12.12
2018-05-12T02:14:51.747Z,12.1
2018-05-12T02:16:01.716Z,12.12
2018-05-12T02:17:11.428Z,12.08
2018-05-12T02:18:21.393Z,11.99
2018-05-12T02:19:31.099Z,12.07
2018-05-12T02:20:41.116Z,12.1
2018-05-12T02:21:50.834Z,12.03
2018-05-12T02:23:00.283Z,12.1
2018-05-12T02:24:10.274Z,12.03
2018-05-12T02:25:20.273Z,11.97
2018-05-12T02:26:30.250Z,12.1
2018-05-12T02:27:39.966Z,12.02
2018-05-12T02:28:49.679Z,12.05
2018-05-12T02:29:59.396Z,12.02
2018-05-12T02:39:10.901Z,12
2018-05-12T02:40:21.116Z,12
2018-05-12T02:41:31.085Z,12
2018-05-12T02:42:40.820Z,12.02
2018-05-12T02:43:50.816Z,12
2018-05-12T02:45:00.520Z,11.95
2018-05-12T02:46:10.498Z,11.86
2018-05-12T02:47:20.473Z,12
2018-05-12T02:48:30.463Z,11.96
2018-05-12T02:49:40.200Z,12.03
2018-05-12T02:50:50.184Z,11.93
2018-05-12T02:52:00.163Z,11.93
2018-05-12T02:53:10.153Z,11.99
2018-05-12T02:54:19.607Z,11.95
2018-05-12T02:55:29.589Z,11.88
2018-05-12T02:56:39.320Z,11.91
2018-05-12T02:57:49.041Z,11.93
2018-05-12T02:58:59.221Z,11.89
2018-05-12T03:00:09.642Z,11.91
2018-05-12T03:01:20.411Z,11.81
2018-05-12T03:02:31.003Z,11.85
2018-05-12T03:03:41.318Z,11.86
2018-05-12T03:04:51.937Z,11.93
2018-05-12T03:06:02.095Z,11.91
2018-05-12T03:07:12.522Z,11.86
2018-05-12T03:08:22.835Z,11.91
2018-05-12T03:09:32.878Z,11.95
2018-05-12T03:10:42.869Z,11.89
2018-05-12T03:11:52.829Z,11.93
2018-05-12T03:13:02.796Z,11.97
2018-05-12T03:14:12.763Z,11.96
2018-05-12T03:15:22.482Z,11.99
2018-05-12T03:16:33.319Z,12.02
2018-05-12T03:17:43.314Z,12.02
2018-05-12T03:18:53.312Z,12.02
2018-05-12T03:20:03.531Z,12.03
2018-05-12T03:21:13.619Z,12
2018-05-12T03:22:23.618Z,11.96
2018-05-12T03:23:33.608Z,11.99
2018-05-12T03:24:44.442Z,12.02
2018-05-12T03:25:55.113Z,12.02
2018-05-12T03:27:05.335Z,12.05
2018-05-12T03:28:15.610Z,12.02
2018-05-12T03:29:25.822Z,11.97
2018-05-12T03:30:36.451Z,12.1
2018-05-12T03:31:46.418Z,11.96
2018-05-12T03:32:56.798Z,12
2018-05-12T03:34:06.796Z,12.02
2018-05-12T03:35:16.995Z,11.96
2018-05-12T03:36:27.012Z,12.05
2018-05-12T03:37:36.991Z,12.02
2018-05-12T03:38:47.213Z,12.02
2018-05-12T03:39:57.572Z,12.03
2018-05-12T03:41:07.542Z,12.02
2018-05-12T03:42:17.215Z,11.96
2018-05-12T03:43:27.283Z,11.95
2018-05-12T03:44:37.480Z,12.05
2018-05-12T03:45:48.119Z,12.05
2018-05-12T03:46:58.194Z,12.07
2018-05-12T03:48:08.582Z,12
2018-05-12T03:49:19.376Z,12.11
2018-05-12T03:50:29.341Z,12.07
2018-05-12T03:51:39.311Z,12.08
2018-05-12T03:52:49.285Z,12.1
2018-05-12T03:53:59.262Z,12.15
2018-05-12T03:55:08.976Z,12.15
2018-05-12T03:56:18.683Z,12.2
2018-05-12T03:57:28.656Z,12.17
2018-05-12T03:58:38.104Z,12.17
2018-05-12T03:59:48.064Z,12.23
2018-05-12T04:00:58.108Z,12.35
2018-05-12T04:02:07.830Z,12.32
2018-05-12T04:03:17.809Z,12.36
2018-05-12T04:04:27.519Z,12.48
2018-05-12T04:05:37.509Z,12.53
2018-05-12T04:06:47.473Z,12.51
2018-05-12T04:07:57.439Z,12.63
2018-05-12T04:09:07.423Z,12.68
2018-05-12T04:10:17.405Z,12.76
2018-05-12T04:11:27.138Z,12.76
2018-05-12T04:12:37.117Z,12.76
2018-05-12T04:13:46.823Z,12.78
2018-05-12T04:14:56.797Z,12.9
2018-05-12T04:16:06.531Z,12.91
2018-05-12T04:17:16.594Z,12.8
2018-05-12T04:18:26.310Z,12.95
2018-05-12T04:19:36.276Z,12.93
2018-05-12T04:20:46.005Z,12.98
2018-05-12T04:21:55.719Z,13.03
2018-05-12T04:23:05.438Z,13.02
2018-05-12T04:24:15.459Z,13.16
2018-05-12T04:25:25.665Z,13.11
2018-05-12T04:26:35.907Z,13.24
2018-05-12T04:27:47.058Z,13.24
2018-05-12T04:28:57.256Z,13.21
2018-05-12T04:30:06.967Z,13.33
2018-05-12T04:31:18.315Z,13.36
2018-05-12T04:32:28.711Z,13.39
2018-05-12T04:33:38.681Z,13.46
2018-05-12T04:34:48.393Z,13.54
2018-05-12T04:35:58.099Z,13.54
2018-05-12T04:37:07.821Z,13.65
2018-05-12T04:38:17.793Z,13.68
2018-05-12T04:39:27.770Z,13.65
2018-05-12T04:40:37.754Z,13.7
2018-05-12T04:41:47.462Z,13.76
2018-05-12T04:42:57.496Z,13.76
2018-05-12T04:44:07.202Z,13.91
2018-05-12T04:45:17.204Z,13.85
2018-05-12T04:46:27.168Z,13.85
2018-05-12T04:47:37.148Z,13.89
2018-05-12T04:48:46.869Z,13.95
2018-05-12T04:49:56.832Z,14
2018-05-12T04:51:06.553Z,14
2018-05-12T04:52:16.269Z,14.03
2018-05-12T04:53:26.240Z,13.95
2018-05-12T04:54:35.940Z,14.03
2018-05-12T04:55:45.644Z,14
2018-05-12T04:56:55.354Z,14
2018-05-12T04:58:05.328Z,13.94
2018-05-12T04:59:15.294Z,14.03
2018-05-12T05:00:25.271Z,14
2018-05-12T05:01:35.260Z,14.04
2018-05-12T05:02:44.975Z,14
2018-05-12T05:03:54.957Z,14.01
2018-05-12T05:05:04.922Z,14.05
2018-05-12T05:06:14.893Z,14.01
2018-05-12T05:07:24.878Z,14.08
2018-05-12T05:08:34.341Z,14.03
2018-05-12T05:09:44.315Z,14.03
2018-05-12T05:10:54.029Z,13.97
2018-05-12T05:12:04.019Z,13.97
2018-05-12T05:13:13.730Z,14.03
2018-05-12T05:14:23.709Z,14.01
2018-05-12T05:15:33.160Z,14
2018-05-12T05:16:43.120Z,14.01
2018-05-12T05:17:53.101Z,14.03
2018-05-12T05:19:03.099Z,13.98
2018-05-12T05:20:13.069Z,14.03
2018-05-12T05:21:22.768Z,14.07
2018-05-12T05:22:32.492Z,14.03
2018-05-12T05:23:42.209Z,14.12
2018-05-12T05:24:51.928Z,14.15
2018-05-12T05:26:01.915Z,14.23
2018-05-12T05:27:11.891Z,14.23
2018-05-12T05:28:21.866Z,14.3
2018-05-12T05:29:31.581Z,14.22
2018-05-12T05:30:41.549Z,14.3
2018-05-12T05:31:51.524Z,14.31
2018-05-12T05:33:01.499Z,14.41
2018-05-12T05:34:11.490Z,14.48
2018-05-12T05:35:21.454Z,14.53
2018-05-12T05:36:31.178Z,14.56
2018-05-12T05:37:41.142Z,14.71
2018-05-12T05:38:51.115Z,14.63
2018-05-12T05:40:01.086Z,14.68
2018-05-12T05:41:10.802Z,14.81
2018-05-12T05:42:20.514Z,14.74
2018-05-12T05:43:30.234Z,14.89
2018-05-12T05:44:39.944Z,14.82
2018-05-12T05:45:49.930Z,14.81
2018-05-12T05:46:59.901Z,14.92
2018-05-12T05:48:09.613Z,14.96
2018-05-12T05:49:19.587Z,15.04
2018-05-12T05:50:29.556Z,15.02
2018-05-12T05:51:39.528Z,15.14
2018-05-12T05:52:49.243Z,15.14
2018-05-12T05:53:59.218Z,15.18
2018-05-12T05:55:09.199Z,15.23
2018-05-12T05:56:19.175Z,15.25
2018-05-12T05:57:29.149Z,15.44
2018-05-12T05:58:39.374Z,15.39
2018-05-12T05:59:49.354Z,15.37
2018-05-12T06:00:59.340Z,15.51
2018-05-12T06:02:09.064Z,15.6
2018-05-12T06:03:19.041Z,15.62
2018-05-12T06:04:29.011Z,15.65
2018-05-12T06:05:38.719Z,15.76
2018-05-12T06:06:48.821Z,15.7
2018-05-12T06:07:59.131Z,15.75
2018-05-12T06:09:09.120Z,15.8
2018-05-12T06:10:19.103Z,15.94
2018-05-12T06:11:29.088Z,15.99
2018-05-12T06:12:39.079Z,15.99
2018-05-12T06:13:49.057Z,16.05
2018-05-12T06:14:58.773Z,16.06
2018-05-12T06:16:08.502Z,16.08
2018-05-12T06:17:18.482Z,16.25
2018-05-12T06:18:28.197Z,16.26
2018-05-12T06:19:38.179Z,16.4
2018-05-12T06:20:48.151Z,16.44
2018-05-12T06:21:58.115Z,16.44
2018-05-12T06:23:07.319Z,16.47
2018-05-12T06:24:17.317Z,16.55
2018-05-12T06:25:27.290Z,16.5
2018-05-12T06:26:37.264Z,16.54
2018-05-12T06:27:47.010Z,16.65
2018-05-12T06:28:56.851Z,16.69
2018-05-12T06:30:06.573Z,16.98
2018-05-12T06:31:16.564Z,17.07
2018-05-12T06:32:26.284Z,17.12
2018-05-12T06:33:36.182Z,17.27
2018-05-12T06:34:46.216Z,17.38
2018-05-12T06:35:55.936Z,17.47
2018-05-12T06:37:05.722Z,17.57
2018-05-12T06:38:15.697Z,17.66
2018-05-12T06:39:25.675Z,17.8
2018-05-12T06:40:35.657Z,17.79
2018-05-12T06:41:45.370Z,17.8
2018-05-12T06:42:55.358Z,17.73
2018-05-12T06:44:05.333Z,17.8
2018-05-12T06:45:15.316Z,17.87
2018-05-12T06:46:25.289Z,17.98
2018-05-12T06:47:35.014Z,18.09
2018-05-12T06:48:44.991Z,18.12
2018-05-12T06:49:54.696Z,18.24
2018-05-12T06:51:04.413Z,18.28
2018-05-12T06:52:14.384Z,18.43
2018-05-12T06:53:24.360Z,18.53
2018-05-12T06:54:34.064Z,18.63
2018-05-12T06:55:43.781Z,18.7
2018-05-12T06:56:53.755Z,18.89
2018-05-12T06:58:03.727Z,19.07
2018-05-12T06:59:13.701Z,19.07
2018-05-12T07:00:23.683Z,19.23
2018-05-12T07:01:33.857Z,19.29
2018-05-12T07:02:43.842Z,19.23
2018-05-12T07:03:53.808Z,19.26
2018-05-12T07:05:03.778Z,19.3
2018-05-12T07:06:13.503Z,19.38
2018-05-12T07:07:23.499Z,19.48
2018-05-12T07:08:33.216Z,19.44
2018-05-12T07:09:43.195Z,19.48
2018-05-12T07:10:53.178Z,19.55
2018-05-12T07:12:02.894Z,19.62
2018-05-12T07:13:12.611Z,19.62
2018-05-12T07:14:22.333Z,19.62
2018-05-12T07:15:32.303Z,19.59
2018-05-12T07:16:42.271Z,19.66
2018-05-12T07:17:52.257Z,19.7
2018-05-12T07:19:02.232Z,19.7
2018-05-12T07:20:11.702Z,19.63
2018-05-12T07:21:21.427Z,19.66
2018-05-12T07:22:31.405Z,19.48
2018-05-12T07:23:40.871Z,19.44
2018-05-12T07:24:50.947Z,19.42
2018-05-12T07:26:00.952Z,19.39
2018-05-12T07:27:10.925Z,19.32
2018-05-12T07:28:20.901Z,19.37
2018-05-12T07:29:30.613Z,19.53
2018-05-12T07:30:40.559Z,19.63
2018-05-12T07:31:50.267Z,19.85
2018-05-12T07:33:00.244Z,19.82
2018-05-12T07:34:10.063Z,20.03
2018-05-12T07:35:20.049Z,20.08
2018-05-12T07:36:30.048Z,19.97
2018-05-12T07:37:40.045Z,19.97
2018-05-12T07:38:50.032Z,20.07
2018-05-12T07:40:00.092Z,20.12
2018-05-12T07:41:09.816Z,20.21
2018-05-12T07:42:19.826Z,20.17
2018-05-12T07:43:29.802Z,20.22
2018-05-12T07:44:39.524Z,20.22
2018-05-12T07:45:48.978Z,20.32
2018-05-12T07:46:58.979Z,20.49
2018-05-12T07:48:08.957Z,20.48
2018-05-12T07:49:18.940Z,20.3
2018-05-12T07:50:28.921Z,20.29
2018-05-12T07:51:39.026Z,20.08
2018-05-12T07:52:49.108Z,20.1
2018-05-12T07:53:59.095Z,20
2018-05-12T07:55:09.068Z,20.11
2018-05-12T07:56:19.079Z,20.24
2018-05-12T07:57:29.062Z,20.37
2018-05-12T07:58:39.048Z,20.19
2018-05-12T07:59:48.762Z,20.08
2018-05-12T08:00:58.470Z,19.93
2018-05-12T08:02:08.180Z,19.94
2018-05-12T08:03:18.151Z,19.94
2018-05-12T08:04:28.223Z,20.1
2018-05-12T08:05:38.207Z,19.96
2018-05-12T08:06:48.170Z,19.87
2018-05-12T08:07:57.640Z,19.79
2018-05-12T08:09:07.616Z,19.56
2018-05-12T08:10:17.623Z,19.53
2018-05-12T08:11:27.607Z,19.53
2018-05-12T08:12:37.615Z,19.53
2018-05-12T08:13:47.427Z,19.56
2018-05-12T08:14:57.418Z,19.62
2018-05-12T08:16:07.166Z,19.7
2018-05-12T08:17:17.139Z,19.57
2018-05-12T08:18:27.125Z,19.45
2018-05-12T08:19:37.183Z,19.44
2018-05-12T08:20:46.913Z,19.42
2018-05-12T08:21:56.885Z,19.44
2018-05-12T08:23:06.625Z,19.53
2018-05-12T08:24:16.603Z,19.45
2018-05-12T08:25:26.593Z,19.56
2018-05-12T08:26:36.600Z,19.53
2018-05-12T08:27:46.570Z,19.7
2018-05-12T08:28:56.563Z,19.63
2018-05-12T08:30:06.540Z,19.66
2018-05-12T08:31:16.530Z,19.67
2018-05-12T08:32:26.254Z,19.72
2018-05-12T08:33:36.240Z,19.89
2018-05-12T08:34:46.236Z,19.94
2018-05-12T08:35:55.949Z,20.26
2018-05-12T08:37:05.665Z,20.5
2018-05-12T08:38:15.632Z,20.71
2018-05-12T08:39:25.416Z,20.64
2018-05-12T08:40:35.543Z,20.55
2018-05-12T08:41:45.579Z,20.55
2018-05-12T08:42:55.307Z,20.52
2018-05-12T08:44:05.300Z,20.56
2018-05-12T08:45:15.281Z,20.64
2018-05-12T08:46:25.257Z,20.78
2018-05-12T08:47:35.264Z,20.92
2018-05-12T08:48:44.981Z,21.08
2018-05-12T08:49:54.979Z,21.25
2018-05-12T08:51:04.971Z,21.33
2018-05-12T08:52:14.698Z,21.37
2018-05-12T08:53:24.681Z,21.33
2018-05-12T08:54:34.656Z,21.33
2018-05-12T08:55:44.107Z,21.32
2018-05-12T08:56:53.819Z,21.3
2018-05-12T08:58:03.545Z,21.05
2018-05-12T08:59:13.268Z,21.13
2018-05-12T09:00:23.246Z,21.25
2018-05-12T09:01:33.125Z,21.28
2018-05-12T09:02:43.109Z,21.3
2018-05-12T09:03:53.089Z,21.29
2018-05-12T09:05:02.812Z,21.29
2018-05-12T09:06:12.804Z,21.23
2018-05-12T09:07:22.761Z,21.33
2018-05-12T09:08:32.733Z,21.13
2018-05-12T09:09:42.728Z,21.26
2018-05-12T09:10:52.705Z,21.22
2018-05-12T09:12:02.686Z,21.28
2018-05-12T09:13:12.669Z,21.45
2018-05-12T09:14:22.378Z,21.65
2018-05-12T09:15:32.169Z,21.72
2018-05-12T09:16:42.162Z,21.83
2018-05-12T09:17:52.145Z,21.72
2018-05-12T09:19:02.123Z,21.62
2018-05-12T09:20:11.849Z,21.74
2018-05-12T09:21:21.909Z,21.96
2018-05-12T09:22:31.381Z,21.99
2018-05-12T09:23:41.354Z,21.81
2018-05-12T09:24:51.322Z,21.65
2018-05-12T09:26:01.308Z,21.59
2018-05-12T09:27:11.291Z,21.59
2018-05-12T09:28:21.023Z,21.65
2018-05-12T09:29:30.512Z,21.83
2018-05-12T09:30:40.249Z,21.85
2018-05-12T09:31:50.223Z,21.94
2018-05-12T09:33:00.199Z,21.97
2018-05-12T09:34:10.258Z,22.03
2018-05-12T09:35:19.984Z,22.06
2018-05-12T09:36:29.711Z,22.15
2018-05-12T09:37:39.692Z,22.28
2018-05-12T09:38:49.408Z,22.51
2018-05-12T09:39:59.170Z,22.74
2018-05-12T09:41:09.155Z,23.04
2018-05-12T09:42:19.425Z,22.98
2018-05-12T09:43:29.276Z,23.1
2018-05-12T09:44:39.245Z,23.11
2018-05-12T09:45:48.994Z,23.14
2018-05-12T09:46:58.716Z,23.37
2018-05-12T09:48:08.447Z,23.56
2018-05-12T09:49:18.429Z,23.56
2018-05-12T09:50:28.143Z,23.45
2018-05-12T09:51:37.865Z,23.44
2018-05-12T09:52:47.846Z,23.48
2018-05-12T09:53:57.816Z,23.42
2018-05-12T09:55:07.270Z,23.54
2018-05-12T09:56:17.009Z,23.32
2018-05-12T09:57:26.992Z,23.08
2018-05-12T09:58:36.964Z,23.21
2018-05-12T09:59:46.690Z,23.08
2018-05-12T10:00:56.675Z,22.96
2018-05-12T10:02:06.652Z,22.86
2018-05-12T10:03:16.734Z,22.86
2018-05-12T10:04:26.743Z,22.65
2018-05-12T10:05:36.468Z,22.61
2018-05-12T10:06:46.202Z,22.43
2018-05-12T10:07:56.193Z,22.56
2018-05-12T10:09:05.931Z,22.74
2018-05-12T10:10:15.760Z,22.67
2018-05-12T10:11:25.736Z,22.58
2018-05-12T10:12:35.721Z,22.46
2018-05-12T10:13:45.720Z,22.25
2018-05-12T10:14:55.703Z,22.43
2018-05-12T10:16:05.703Z,22.68
2018-05-12T10:17:15.727Z,22.84
2018-05-12T10:18:25.663Z,22.91
2018-05-12T10:19:36.485Z,23.06
2018-05-12T10:20:47.395Z,22.98
2018-05-12T10:21:58.383Z,23.01
2018-05-12T10:23:09.274Z,22.98
2018-05-12T10:24:19.725Z,23.14
2018-05-12T10:25:31.109Z,23.29
2018-05-12T10:26:41.106Z,23.47
2018-05-12T10:27:51.089Z,23.42
2018-05-12T10:29:00.828Z,23.4
2018-05-12T10:30:10.628Z,23.28
2018-05-12T10:31:20.620Z,23.1
2018-05-12T10:32:30.341Z,23.06
2018-05-12T10:33:40.554Z,22.84
2018-05-12T10:34:50.993Z,22.63
2018-05-12T10:36:01.446Z,22.61
2018-05-12T10:37:11.692Z,22.63
2018-05-12T10:38:22.124Z,22.93
2018-05-12T10:39:32.784Z,23.25
2018-05-12T10:40:43.012Z,23.69
2018-05-12T10:41:53.242Z,23.81
2018-05-12T10:43:03.763Z,23.92
2018-05-12T10:44:14.040Z,24.03
2018-05-12T10:45:24.263Z,24.21
2018-05-12T10:46:34.981Z,24.47
2018-05-12T10:47:44.712Z,24.71
2018-05-12T10:48:54.713Z,24.62
2018-05-12T10:50:04.437Z,24.4
2018-05-12T10:51:14.436Z,24.48
2018-05-12T10:52:24.637Z,24.65
2018-05-12T10:53:34.614Z,24.99
2018-05-12T10:54:44.620Z,25.22
2018-05-12T10:55:54.097Z,25.41
2018-05-12T10:57:04.093Z,25.8
2018-05-12T10:58:14.153Z,25.98
2018-05-12T10:59:23.889Z,26.07
2018-05-12T11:00:34.456Z,25.91
2018-05-12T11:01:45.274Z,25.76
2018-05-12T11:02:55.305Z,25.51
2018-05-12T11:04:06.064Z,25.44
2018-05-12T11:05:16.320Z,25.44
2018-05-12T11:06:26.294Z,25.39
2018-05-12T11:07:36.511Z,25.52
2018-05-12T11:08:47.314Z,25.4
2018-05-12T11:09:57.179Z,25.39
2018-05-12T11:11:07.153Z,25.24
2018-05-12T11:12:17.405Z,24.99
2018-05-12T11:13:28.263Z,24.59
2018-05-12T11:14:38.246Z,24.75
2018-05-12T11:15:49.596Z,24.69
2018-05-12T11:17:00.261Z,24.46
2018-05-12T11:18:10.902Z,24.31
2018-05-12T11:19:21.532Z,24.19
2018-05-12T11:20:31.531Z,23.73
2018-05-12T11:21:41.911Z,23.32
2018-05-12T11:22:52.147Z,23.39
2018-05-12T11:24:02.148Z,23.28
2018-05-12T11:25:11.874Z,23.48
2018-05-12T11:26:22.646Z,23.49
2018-05-12T11:27:33.901Z,23.52
2018-05-12T11:28:43.648Z,23.85
2018-05-12T11:29:53.626Z,24.16
2018-05-12T11:31:03.610Z,24.24
2018-05-12T11:32:14.165Z,24.43
2018-05-12T11:33:24.865Z,24.71
2018-05-12T11:34:34.844Z,24.71
2018-05-12T11:35:44.579Z,24.75
2018-05-12T11:36:55.035Z,24.88
2018-05-12T11:38:06.140Z,24.79
2018-05-12T11:39:16.175Z,24.89
2018-05-12T11:40:25.897Z,24.81
2018-05-12T11:41:36.709Z,24.75
2018-05-12T11:42:47.090Z,24.5
2018-05-12T11:43:57.172Z,24.44
2018-05-12T11:45:06.907Z,24.43
2018-05-12T11:46:16.887Z,24.71
2018-05-12T11:47:26.915Z,24.85
2018-05-12T11:48:56.105Z,24.69
2018-05-12T11:50:11.436Z,24.31
2018-05-12T11:51:21.066Z,24.37
2018-05-12T11:52:31.186Z,24.56
2018-05-12T11:53:41.424Z,24.56
2018-05-12T11:54:51.852Z,24.56
2018-05-12T11:56:01.593Z,24.51
2018-05-12T11:57:12.737Z,24.36
2018-05-12T11:58:23.228Z,24.28
2018-05-12T11:59:33.220Z,24.44
2018-05-12T12:00:47.648Z,24.56
2018-05-12T12:01:58.438Z,24.51
2018-05-12T12:03:08.438Z,24.78
2018-05-12T12:04:18.455Z,24.89
2018-05-12T12:05:28.456Z,25.06
2018-05-12T12:06:38.442Z,25.24
2018-05-12T12:07:48.434Z,25.14
2018-05-12T12:08:58.159Z,25.14
2018-05-12T12:10:08.153Z,25.3
2018-05-12T12:11:18.147Z,25.46
2018-05-12T12:12:28.127Z,25.8
2018-05-12T12:13:37.865Z,25.93
2018-05-12T12:14:47.853Z,25.71
2018-05-12T12:15:57.590Z,25.59
2018-05-12T12:17:07.307Z,25.43
2018-05-12T12:18:17.287Z,25.52
2018-05-12T12:19:27.251Z,25.74
2018-05-12T12:20:36.970Z,25.49
2018-05-12T12:21:47.005Z,25.26
2018-05-12T12:22:56.930Z,25.16
2018-05-12T12:24:06.601Z,25.22
2018-05-12T12:25:17.295Z,25.26
2018-05-12T12:26:27.599Z,25.71
2018-05-12T12:27:42.821Z,25.91
2018-05-12T12:28:52.537Z,26.16
2018-05-12T12:30:02.253Z,26.03
2018-05-12T12:31:12.258Z,26.03
2018-05-12T12:32:22.248Z,26.22
2018-05-12T12:33:32.402Z,25.96
2018-05-12T12:34:42.397Z,26.22
2018-05-12T12:35:52.128Z,26.63
2018-05-12T12:37:02.125Z,26.88
2018-05-12T12:38:11.587Z,27.19
2018-05-12T12:39:21.059Z,27.67
2018-05-12T12:40:31.032Z,28.04
2018-05-12T12:41:41.013Z,28.28
2018-05-12T12:42:51.027Z,28.41
2018-05-12T12:44:00.761Z,28.28
2018-05-12T12:45:11.083Z,27.6
2018-05-12T12:46:21.090Z,27.37
2018-05-12T12:47:30.557Z,27.29
2018-05-12T12:48:40.546Z,27.58
2018-05-12T12:49:50.764Z,27.86
2018-05-12T12:51:00.989Z,28.18
2018-05-12T12:52:11.269Z,28.01
2018-05-12T12:53:21.290Z,28.3
2018-05-12T12:54:31.937Z,28.7
2018-05-12T12:55:41.952Z,29.2
2018-05-12T12:56:52.004Z,29.64
2018-05-12T12:58:01.730Z,29.94
2018-05-12T12:59:12.445Z,30.31
2018-05-12T13:00:22.199Z,30.24
2018-05-12T13:01:32.176Z,30.23
2018-05-12T13:02:41.910Z,30.38
2018-05-12T13:03:51.675Z,30.61
2018-05-12T13:05:01.767Z,30.63
2018-05-12T13:06:12.009Z,30.27
2018-05-12T13:07:22.447Z,29.52
2018-05-12T13:08:32.466Z,29.53
2018-05-12T13:09:42.460Z,29.77
2018-05-12T13:10:52.453Z,29.94
2018-05-12T13:12:03.122Z,30.13
2018-05-12T13:13:14.391Z,30.43
2018-05-12T13:14:25.617Z,30.46
2018-05-12T13:15:36.489Z,30.63
2018-05-12T13:16:51.623Z,30.88
2018-05-12T13:18:04.147Z,30.93
2018-05-12T13:19:14.642Z,31.17
2018-05-12T13:20:28.595Z,31.29
2018-05-12T13:21:42.143Z,30.76
2018-05-12T13:22:54.847Z,30.01
2018-05-12T13:24:04.875Z,29.59
2018-05-12T13:25:14.624Z,29.58
2018-05-12T13:26:24.617Z,29.24
2018-05-12T13:27:34.847Z,28.89
2018-05-12T13:28:45.316Z,28.25
2018-05-12T13:29:55.048Z,27.93
2018-05-12T13:31:05.069Z,27.47
2018-05-12T13:32:15.062Z,27.75
2018-05-12T13:33:25.434Z,27.97
2018-05-12T13:34:35.827Z,28.06
2018-05-12T13:35:46.029Z,28.4
2018-05-12T13:36:56.872Z,28.84
2018-05-12T13:38:06.610Z,29.44
2018-05-12T13:39:16.987Z,29.42
2018-05-12T13:40:28.607Z,29.55
2018-05-12T13:41:38.458Z,29.65
2018-05-12T13:42:48.459Z,29.47
2018-05-12T13:43:58.191Z,29.32
2018-05-12T13:45:08.388Z,29.4
2018-05-12T13:46:18.416Z,29.5
2018-05-12T13:47:28.134Z,29.44
2018-05-12T13:48:38.125Z,29.67
2018-05-12T13:49:48.712Z,30.01
2018-05-12T13:50:59.066Z,30.08
2018-05-12T13:52:09.999Z,29.89
2018-05-12T13:53:21.223Z,29.87
2018-05-12T13:54:31.794Z,29.86
2018-05-12T13:55:41.716Z,29.87
2018-05-12T13:56:52.134Z,29.87
2018-05-12T13:58:01.858Z,29.86
2018-05-12T13:59:11.598Z,29.81
2018-05-12T14:00:21.838Z,30.1
2018-05-12T14:01:32.453Z,30.17
2018-05-12T14:02:43.728Z,30.44
2018-05-12T14:03:55.458Z,30.83
2018-05-12T14:05:07.580Z,31.05
2018-05-12T14:06:17.997Z,31.22
2018-05-12T14:07:29.442Z,31.5
2018-05-12T14:08:42.878Z,31.64
2018-05-12T14:09:55.558Z,31.97
2018-05-12T14:11:06.427Z,32.2
2018-05-12T14:12:17.466Z,32.45
2018-05-12T14:13:39.677Z,32.81
2018-05-12T14:14:50.803Z,32.83
2018-05-12T14:16:01.014Z,32.44
2018-05-12T14:17:24.320Z,32.51
2018-05-12T14:18:34.527Z,32.72
2018-05-12T14:19:47.843Z,32.94
2018-05-12T14:20:58.049Z,32.82
2018-05-12T14:22:08.798Z,32.67
2018-05-12T14:23:21.929Z,32.51
2018-05-12T14:24:34.492Z,32.39
2018-05-12T14:25:46.777Z,32.49
2018-05-12T14:26:58.282Z,32.6
2018-05-12T14:28:08.907Z,32.27
2018-05-12T14:29:19.650Z,30.98
2018-05-12T14:30:30.131Z,30.65
2018-05-12T14:31:41.472Z,30.27
2018-05-12T14:32:54.835Z,30.02
2018-05-12T14:34:06.547Z,29.81
2018-05-12T14:35:19.466Z,29.71
2018-05-12T14:36:30.143Z,29.42
2018-05-12T14:37:40.099Z,29.65
2018-05-12T14:38:52.273Z,30.13
2018-05-12T14:40:04.186Z,30.65
2018-05-12T14:41:16.116Z,31.17
2018-05-12T14:42:28.160Z,31.47
2018-05-12T14:43:38.905Z,30.8
2018-05-12T14:44:51.158Z,30.38
2018-05-12T14:46:02.357Z,29.9
2018-05-12T14:47:12.374Z,29.89
2018-05-12T14:48:22.117Z,29.46
2018-05-12T14:49:32.341Z,29.44
2018-05-12T14:50:42.360Z,29.44
2018-05-12T14:51:52.978Z,29.42
2018-05-12T14:53:04.197Z,29.44
2018-05-12T14:54:15.207Z,29.74
2018-05-12T14:55:26.916Z,30.02
2018-05-12T14:56:38.452Z,30.13
2018-05-12T14:57:50.492Z,30.32
2018-05-12T14:59:01.286Z,30.78
2018-05-12T15:00:12.688Z,31.23
2018-05-12T15:01:23.157Z,31.05
2018-05-12T15:02:33.400Z,30.44
2018-05-12T15:03:44.549Z,30.55
2018-05-12T15:04:59.661Z,31.04
2018-05-12T15:06:14.014Z,30.54
2018-05-12T15:07:25.676Z,30.24
2018-05-12T15:08:36.449Z,30.43
2018-05-12T15:09:47.304Z,30.54
2018-05-12T15:10:57.269Z,30.26
2018-05-12T15:12:08.922Z,29.8
2018-05-12T15:13:19.774Z,29.57
2018-05-12T15:14:35.092Z,29.67
2018-05-12T15:15:46.114Z,29.53
2018-05-12T15:16:59.603Z,29.31